OMAA/AUH METAR and TAF weather

Enter ICAO airport designator
Station Type Date Time Source
OMAA METAR 2019/06/18 13:00 UTC NOAA

OMAA 181300Z 31013KT 8000 NSC 37/28 Q0996 NOSIG


Station Type Date Time Source
OMAA Decoded METAR 2019/06/18 13:00 UTC NOAA

Abu Dhabi International Airport, United Arab Emirates (OMAA) 24-26N 054-39E 27M
Jun 18, 2019 - 09:00 AM EDT / 2019.06.18 1300 UTC
Wind: from the NW (310 degrees) at 15 MPH (13 KT):0
Visibility: 4 mile(s):0
Temperature: 98 F (37 C)
Heat index: 122.5 F (50.3 C):1
Dew Point: 82 F (28 C)
Relative Humidity: 60%
Pressure (altimeter): 29.41 in. Hg (0996 hPa)
ob: OMAA 181300Z 31013KT 8000 NSC 37/28 Q0996 NOSIG
cycle: 13

Station Type Date Time Source
OMAA TAF 2019/06/18 12:03 UTC NOAA

TAF TAF OMAA 181100Z 1812/1918 33013KT 8000 NSC
BECMG 1817/1819 26008KT PROB30
TEMPO 1901/1903 4000 HZ BKN012
BECMG 1903/1905 33015KT PROB30
TEMPO 1907/1912 33018G28KT 4000 BLDU
BECMG 1916/1918 27010KT

Example: see airport list